Centertown, MO

8:47 PM CDT on August 22, 2014 (GMT -0500)
2 Miles SW of Capital Mall | Change Station
CLOSE
Current Station
Personal Weather Station
Location: Jefferson City, MO
Elevation: 820 ft
Nearby Weather Stations
Active Advisory: Heat Advisory

Elev 820 ft 38.57 °N, 92.29 °W | Updated 5 seconds ago

Clear
Clear
87.3 °F
Feels Like 89 °F
N
0.0
Wind Variable Wind from SSE
Gusts 0.0 mph

Today
High -- | Low -- °F
--% Chance of Precip.
Yesterday
High -- | Low -- °F
Precip. -- in
6:29 AM 7:54 PM
Waning Crescent, 6% visible
Pressure 29.85 in
Visibility 10.0 miles
Clouds Clear
Heat Index 89 °F
Dew Point 65 °F
Humidity 48%
Rainfall 0.00 in
Snow Depth Not available.
UV 0 out of 12
Pollen 10.60 out of 12
Air Quality Not available.
Flu Activity Not available.
METAR KJEF 230053Z 00000KT 10SM CLR 31/24 A2989 RMK AO2 SLP107 T03110239

More Conditions Fewer Conditions

Pressure 29.85 in
Visibility 10.0 miles
Clouds Clear
Heat Index 89 °F
Dew Point 65 °F
Humidity 48%
Rainfall 0.00 in
Snow Depth Not available.
UV 0 out of 12
Pollen 10.60 out of 12
Air Quality Not available.
Flu Activity Not available.
METAR KJEF 230053Z 00000KT 10SM CLR 31/24 A2989 RMK AO2 SLP107 T03110239

More Conditions Fewer Conditions

10-Day Weather Forecast

Almanac

Astronomy

Aug. 22, 2014 Rise Set
Actual Time 6:29 AM CDT 7:54 PM CDT
Civil Twilight 6:02 AM CDT 8:21 PM CDT
Nautical Twilight 5:28 AM CDT 8:55 PM CDT
Astronomical Twilight 4:53 AM CDT 9:30 PM CDT
Moon 3:53 AM CDT (8/22) 6:02 PM CDT (8/22)
Length of Visible Light 14h 19m
Length of Day
13h 24m
Tomorrow will be 2m 18s shorter.
Waning Crescent, 6% of the Moon is Illuminated
Today
Waning Crescent
Aug 25
New
Sep 2
First Quarter
Sep 8
Full
Sep 15
Last Quarter

Today's Extremes

State Highs State Lows

Community

WunderPhotos

Upload Photos

1,746,337 photos uploaded!

WunderBlogs® & News

Nearby

Snow Depth

Station Depth Elevation
No new snow has been reported.

Earthquake Activity

City Distance Mag. Time & Date
No recent earthquake activity has been reported nearby.
Minimum magnitude displayed is 2.5.

Coastal Water Temperatures

Place Temperature
No Stations Reporting

Nearby Weather Stations